Time;durP1;ratioP1;P1;durP2;ratioP2;P2;SDS_P1;SDS_P2;PMS_P1;PMS_P2;Temp;Humidity;BMP_temperature;BMP_pressure;BME280_temperature;BME280_humidity;BME280_pressure;Samples;Min_cycle;Max_cycle;Signal;HPM_P1;HPM_P2
2022/04/10 00:01:38;;;;;;;5.20;2.60;;;;;;;6.99;92.04;98343.23;1644438;86;20989;-71
2022/04/10 00:04:07;;;;;;;3.77;2.00;;;;;;;6.96;92.20;98342.51;1643743;87;21466;-70
2022/04/10 00:06:33;;;;;;;3.12;2.22;;;;;;;6.93;92.77;98339.84;1612780;87;21500;-74
2022/04/10 00:09:02;;;;;;;3.12;2.17;;;;;;;6.88;92.50;98338.64;1624090;87;21513;-72
2022/04/10 00:11:31;;;;;;;3.77;2.33;;;;;;;6.84;92.76;98350.80;1644192;87;21041;-70
2022/04/10 00:14:00;;;;;;;2.60;2.35;;;;;;;6.81;92.82;98352.27;1644248;87;21737;-73
2022/04/10 00:16:26;;;;;;;2.50;2.30;;;;;;;6.78;92.73;98362.50;1644311;86;21029;-72
2022/04/10 00:18:55;;;;;;;5.83;2.70;;;;;;;6.75;91.87;98382.31;1644402;87;20985;-70
2022/04/10 00:21:23;;;;;;;2.42;2.02;;;;;;;6.63;92.02;98371.19;1644234;87;21114;-72
2022/04/10 00:23:49;;;;;;;3.62;2.08;;;;;;;6.52;95.68;98372.88;1644452;87;21063;-74
2022/04/10 00:26:19;;;;;;;2.87;2.60;;;;;;;6.48;97.07;98367.00;1644336;87;20953;-72
2022/04/10 00:28:46;;;;;;;2.87;2.15;;;;;;;6.44;96.36;98376.41;1644030;87;20970;-71
2022/04/10 00:31:13;;;;;;;3.42;2.00;;;;;;;6.44;95.17;98360.81;1644323;87;21068;-71
2022/04/10 00:33:42;;;;;;;3.00;2.15;;;;;;;6.44;93.87;98370.38;1644401;87;21025;-71
2022/04/10 00:36:10;;;;;;;3.70;1.87;;;;;;;6.46;93.55;98374.16;1644272;87;21048;-72
2022/04/10 00:38:37;;;;;;;2.25;1.95;;;;;;;6.47;93.74;98379.87;1612709;87;21881;-70
2022/04/10 00:41:05;;;;;;;2.75;2.10;;;;;;;6.45;93.53;98377.45;1644337;87;21065;-71
2022/04/10 00:43:36;;;;;;;2.47;2.27;;;;;;;6.41;93.58;98372.95;1644459;87;20953;-72
2022/04/10 00:46:02;;;;;;;2.72;2.45;;;;;;;6.37;93.76;98376.07;1644860;86;21061;-72
2022/04/10 00:48:30;;;;;;;4.83;2.62;;;;;;;6.29;93.76;98379.05;1644189;84;21044;-72
2022/04/10 00:53:45;;;;;;;3.95;2.92;;;;;;;6.19;93.96;98380.95;1679221;84;21081;-70
2022/04/10 00:56:19;;;;;;;7.35;3.37;;;;;;;6.16;93.94;98389.80;1731578;82;21050;-72
2022/04/10 00:58:46;;;;;;;3.77;3.00;;;;;;;6.15;93.99;98390.12;1732982;82;21080;-70
2022/04/10 01:01:16;;;;;;;4.50;2.80;;;;;;;6.13;93.85;98398.64;1726801;82;20954;-71
2022/04/10 01:03:45;;;;;;;3.22;2.77;;;;;;;6.13;93.72;98412.88;1730986;82;21005;-69
2022/04/10 01:06:12;;;;;;;4.00;2.70;;;;;;;6.11;93.33;98413.77;1726268;82;20937;-71
2022/04/10 01:08:42;;;;;;;3.70;2.87;;;;;;;6.07;93.34;98412.23;1701378;82;21008;-72
2022/04/10 01:11:12;;;;;;;3.87;3.05;;;;;;;6.03;92.76;98426.25;1711481;82;20994;-71
2022/04/10 01:13:40;;;;;;;5.28;3.15;;;;;;;6.02;92.89;98424.65;1729831;82;21648;-71
2022/04/10 01:16:11;;;;;;;4.10;3.10;;;;;;;6.01;92.58;98428.48;1715499;82;21542;-72
2022/04/10 01:18:41;;;;;;;4.40;3.47;;;;;;;5.99;92.38;98427.44;1716159;82;20985;-71
2022/04/10 01:21:10;;;;;;;3.40;2.85;;;;;;;5.96;92.23;98423.97;1735474;82;21498;-72
2022/04/10 01:23:38;;;;;;;4.65;3.33;;;;;;;5.91;91.42;98427.66;1730934;82;21427;-73
2022/04/10 01:26:08;;;;;;;4.35;3.02;;;;;;;5.85;91.09;98422.88;1662482;82;21061;-70
2022/04/10 01:28:35;;;;;;;5.25;3.22;;;;;;;5.80;90.61;98424.97;1716961;82;21881;-71
2022/04/10 01:31:03;;;;;;;3.72;2.67;;;;;;;5.77;90.22;98428.30;1727443;82;20993;-72
2022/04/10 01:33:30;;;;;;;3.98;2.87;;;;;;;5.73;89.33;98433.05;1729245;82;21041;-71
2022/04/10 01:35:57;;;;;;;3.80;2.50;;;;;;;5.72;89.14;98449.20;1727217;82;21062;-69
2022/04/10 01:38:24;;;;;;;4.28;3.10;;;;;;;5.67;88.18;98460.83;1717923;81;21135;-71
2022/04/10 01:40:52;;;;;;;2.92;2.62;;;;;;;5.65;88.11;98463.88;1737276;82;21195;-72
2022/04/10 01:43:19;;;;;;;3.80;2.80;;;;;;;5.65;87.74;98474.80;1722242;82;21557;-72
2022/04/10 01:45:48;;;;;;;2.50;2.25;;;;;;;5.61;87.08;98468.37;1716062;82;21021;-70
2022/04/10 01:48:15;;;;;;;4.95;2.90;;;;;;;5.63;87.38;98469.42;1730919;82;20929;-70
2022/04/10 01:50:42;;;;;;;4.33;2.50;;;;;;;5.65;87.24;98471.25;1733401;82;20926;-70
2022/04/10 01:53:09;;;;;;;3.35;2.80;;;;;;;5.71;86.70;98479.59;1701089;82;21147;-72
2022/04/10 01:55:37;;;;;;;5.55;3.02;;;;;;;5.68;86.19;98482.38;1703709;82;20981;-72
2022/04/10 01:58:05;;;;;;;4.78;2.62;;;;;;;5.66;86.16;98481.91;1735258;82;21010;-70
2022/04/10 02:00:39;;;;;;;3.47;2.77;;;;;;;5.60;85.84;98496.25;1702233;82;21053;-70
2022/04/10 02:03:08;;;;;;;5.40;2.85;;;;;;;5.55;85.80;98490.09;1712841;82;20959;-71
2022/04/10 02:05:51;;;;;;;4.08;2.55;;;;;;;5.51;85.97;98492.64;1698658;81;21026;-69
2022/04/10 02:08:18;;;;;;;5.12;3.00;;;;;;;5.47;86.02;98497.13;1701020;82;21057;-71
2022/04/10 02:10:46;;;;;;;7.00;2.60;;;;;;;5.43;85.98;98497.48;1722242;82;21451;-70
2022/04/10 02:13:13;;;;;;;4.65;2.85;;;;;;;5.42;85.79;98507.63;1736972;82;20981;-70
2022/04/10 02:15:45;;;;;;;6.47;2.85;;;;;;;5.42;86.00;98515.83;1722237;82;20989;-69
2022/04/10 02:18:12;;;;;;;4.30;3.00;;;;;;;5.39;86.27;98508.22;1737351;82;21146;-72
2022/04/10 02:20:41;;;;;;;4.40;3.25;;;;;;;5.37;86.42;98500.92;1737196;82;20949;-70
2022/04/10 02:23:31;;;;;;;4.78;2.90;;;;;;;5.39;86.48;98519.73;1736849;82;21001;-71
2022/04/10 02:26:05;;;;;;;5.53;2.77;;;;;;;5.38;86.63;98518.91;1694582;82;21486;-71
2022/04/10 02:28:34;;;;;;;5.03;3.02;;;;;;;5.39;86.83;98522.46;1724723;82;20981;-72
2022/04/10 02:31:11;;;;;;;3.72;2.35;;;;;;;5.39;87.03;98520.52;1693170;84;21028;-73
2022/04/10 02:33:41;;;;;;;3.70;2.83;;;;;;;5.40;87.13;98517.23;1698766;83;20932;-70
2022/04/10 02:36:07;;;;;;;11.05;2.92;;;;;;;5.41;87.27;98523.75;1686835;83;20985;-70
2022/04/10 02:38:36;;;;;;;6.60;3.05;;;;;;;5.40;87.30;98521.33;1670021;84;21002;-72
2022/04/10 02:41:05;;;;;;;4.25;2.83;;;;;;;5.38;87.40;98521.64;1677988;84;21024;-72
2022/04/10 02:43:35;;;;;;;4.50;3.10;;;;;;;5.38;87.51;98524.92;1662683;84;21909;-71
2022/04/10 02:46:07;;;;;;;6.65;3.35;;;;;;;5.36;87.72;98528.79;1707745;82;21807;-72
2022/04/10 02:48:44;;;;;;;4.10;2.95;;;;;;;5.35;87.80;98529.92;1722399;82;21232;-70
2022/04/10 02:51:28;;;;;;;5.92;3.10;;;;;;;5.33;87.95;98521.77;1731375;82;20974;-72
2022/04/10 02:53:56;;;;;;;7.53;3.02;;;;;;;5.33;88.08;98524.50;1706205;82;20966;-72
2022/04/10 02:56:25;;;;;;;5.90;3.20;;;;;;;5.35;88.11;98529.92;1717178;82;21307;-71
2022/04/10 02:58:56;;;;;;;;;;;;;;;5.34;88.25;98531.02;1728844;82;20982;-72
2022/04/10 03:01:27;;;;;;;5.92;3.55;;;;;;;5.34;88.31;98531.59;1737032;82;20160;-72
2022/04/10 03:04:07;;;;;;;5.30;3.22;;;;;;;5.33;88.41;98532.69;1731018;82;20930;-70
2022/04/10 03:06:50;;;;;;;6.35;3.58;;;;;;;5.32;88.33;98533.24;1703528;82;21199;-74
2022/04/10 03:09:19;;;;;;;5.53;3.15;;;;;;;5.29;88.40;98535.81;1727993;81;21505;-70
2022/04/10 03:11:47;;;;;;;7.72;3.58;;;;;;;5.25;88.49;98539.71;1737265;82;20938;-70
2022/04/10 03:14:15;;;;;;;5.33;3.33;;;;;;;5.21;88.63;98542.25;1737990;82;21053;-72
2022/04/10 03:16:51;;;;;;;6.62;3.58;;;;;;;5.20;88.75;98542.56;1735777;82;21499;-71
2022/04/10 03:19:19;;;;;;;5.70;3.25;;;;;;;5.19;88.77;98543.11;1739273;81;21017;-73
2022/04/10 03:21:55;;;;;;;6.58;3.83;;;;;;;5.17;88.86;98536.35;1720184;82;20943;-72
2022/04/10 03:24:21;;;;;;;7.33;3.45;;;;;;;5.15;89.00;98538.58;1737045;82;21002;-72
2022/04/10 03:26:54;;;;;;;5.80;3.50;;;;;;;5.17;89.03;98555.47;1736773;82;20990;-74
2022/04/10 03:29:22;;;;;;;6.00;3.67;;;;;;;5.16;88.93;98558.75;1722194;82;22881;-70
2022/04/10 03:31:59;;;;;;;6.42;3.67;;;;;;;5.14;89.03;98555.51;1708863;82;21005;-72
2022/04/10 03:34:27;;;;;;;7.55;3.52;;;;;;;5.15;89.14;98552.23;1729987;82;21101;-73
2022/04/10 03:36:54;;;;;;;5.28;3.50;;;;;;;5.16;89.23;98555.20;1692619;82;21115;-71
2022/04/10 03:39:22;;;;;;;5.12;3.10;;;;;;;5.15;89.23;98554.96;1731705;82;20943;-70
2022/04/10 03:41:56;;;;;;;5.80;3.58;;;;;;;5.16;89.32;98551.10;1723441;82;21077;-71
2022/04/10 03:44:50;;;;;;;5.33;3.67;;;;;;;5.17;89.43;98554.10;1618120;82;21175;-72
2022/04/10 03:47:28;;;;;;;9.28;4.47;;;;;;;5.21;89.44;98560.00;1719580;82;20970;-73
2022/04/10 03:50:03;;;;;;;9.23;3.95;;;;;;;5.23;89.48;98561.06;1721810;81;20954;-71
2022/04/10 03:52:36;;;;;;;8.90;3.83;;;;;;;5.26;89.54;98562.35;1734615;82;20942;-73
2022/04/10 03:57:59;;;;;;;11.18;4.45;;;;;;;5.29;89.50;98572.69;1632933;86;20983;-72
2022/04/10 04:03:23;;;;;;;10.78;4.40;;;;;;;5.28;89.53;98580.61;1539602;93;21034;-72
2022/04/10 04:06:29;;;;;;;9.45;4.45;;;;;;;5.28;89.54;98580.06;1559882;89;20993;-71
2022/04/10 04:09:11;;;;;;;8.03;4.37;;;;;;;5.27;89.60;98577.64;1600389;89;21054;-73
2022/04/10 04:12:22;;;;;;;5.67;3.50;;;;;;;5.30;89.89;98580.57;1572790;89;21570;-73
2022/04/10 04:15:10;;;;;;;5.92;3.92;;;;;;;5.32;89.86;98585.14;1585142;88;21023;-73
2022/04/10 04:17:52;;;;;;;5.10;3.58;;;;;;;5.34;89.92;98589.75;1591383;89;21339;-74
2022/04/10 04:20:32;;;;;;;5.97;3.80;;;;;;;5.36;89.96;98597.64;1585218;89;21127;-72
2022/04/10 04:23:17;;;;;;;4.75;3.95;;;;;;;5.41;90.03;98599.47;1585877;89;21590;-73
2022/04/10 04:34:34;;;;;;;10.68;5.33;;;;;;;5.45;89.90;98615.48;1632189;82;21098;-71
2022/04/10 04:37:04;;;;;;;14.30;5.53;;;;;;;5.50;90.12;98623.56;1701767;83;20928;-72
2022/04/10 04:39:41;;;;;;;13.38;5.90;;;;;;;5.52;90.18;98628.17;1689863;83;21029;-69
2022/04/10 04:42:10;;;;;;;11.88;5.55;;;;;;;5.54;89.96;98627.31;1660821;84;21076;-71
2022/04/10 04:44:40;;;;;;;9.63;5.37;;;;;;;5.56;90.05;98633.83;1688536;82;21527;-72
2022/04/10 04:47:12;;;;;;;12.35;5.33;;;;;;;5.64;89.83;98640.48;1693792;84;20976;-72
2022/04/10 04:49:41;;;;;;;8.70;5.03;;;;;;;5.62;89.85;98644.89;1698006;84;21043;-72
2022/04/10 04:52:18;;;;;;;10.78;4.95;;;;;;;5.64;89.81;98647.31;1689056;84;20927;-71
2022/04/10 04:54:57;;;;;;;9.18;4.75;;;;;;;5.66;89.79;98651.37;1678106;83;21410;-69
2022/04/10 04:57:42;;;;;;;6.70;4.80;;;;;;;5.66;89.66;98653.28;1702092;83;21028;-73
2022/04/10 05:00:33;;;;;;;14.07;7.05;;;;;;;5.65;89.63;98656.56;1692659;83;21071;-71
2022/04/10 05:03:01;;;;;;;11.63;5.42;;;;;;;5.66;89.63;98660.12;1683504;82;21052;-71
2022/04/10 05:05:30;;;;;;;9.73;5.40;;;;;;;5.72;89.95;98667.08;1691323;84;21094;-71
2022/04/10 05:07:58;;;;;;;17.70;6.92;;;;;;;5.76;89.47;98674.10;1692238;83;21734;-71
2022/04/10 05:10:40;;;;;;;14.50;5.85;;;;;;;5.73;89.38;98672.81;1687618;84;21656;-70
2022/04/10 05:13:37;;;;;;;17.65;6.92;;;;;;;5.78;89.65;98673.25;1674195;84;21636;-72
2022/04/10 05:16:08;;;;;;;14.65;6.62;;;;;;;5.81;89.40;98676.72;1656977;85;21050;-73
2022/04/10 05:18:38;;;;;;;15.23;6.35;;;;;;;5.84;89.43;98679.66;1680284;84;21119;-74
2022/04/10 05:21:07;;;;;;;21.12;6.45;;;;;;;5.87;89.10;98683.68;1681913;84;22105;-72
2022/04/10 05:23:34;;;;;;;13.18;5.70;;;;;;;5.89;89.23;98688.84;1731077;82;20892;-71
2022/04/10 05:26:06;;;;;;;16.50;7.65;;;;;;;5.95;89.33;98686.25;1649136;84;21024;-71
2022/04/10 05:28:40;;;;;;;13.38;6.85;;;;;;;6.03;89.19;98688.80;1680679;84;21091;-71
2022/04/10 05:31:16;;;;;;;17.15;7.70;;;;;;;6.08;88.78;98692.81;1684935;84;21105;-72
2022/04/10 05:33:46;;;;;;;11.65;6.10;;;;;;;6.12;88.35;98691.63;1674166;83;21229;-71
2022/04/10 05:36:22;;;;;;;15.30;6.40;;;;;;;6.12;88.10;98694.37;1670361;84;21008;-72
2022/04/10 05:38:56;;;;;;;12.53;5.67;;;;;;;6.08;87.50;98696.36;1645300;84;21054;-72
2022/04/10 05:41:45;;;;;;;11.60;6.12;;;;;;;6.05;87.91;98694.25;1677697;84;21069;-72
2022/04/10 05:44:17;;;;;;;19.25;6.67;;;;;;;6.14;87.96;98706.60;1678346;84;21077;-70
2022/04/10 05:46:56;;;;;;;16.48;7.47;;;;;;;6.18;87.54;98718.55;1677655;84;21820;-72
2022/04/10 05:49:24;;;;;;;13.15;6.33;;;;;;;6.19;87.13;98709.22;1681185;84;21071;-72
2022/04/10 05:51:54;;;;;;;15.53;6.17;;;;;;;6.23;86.68;98716.25;1682545;84;21033;-72
2022/04/10 05:54:28;;;;;;;11.88;6.05;;;;;;;6.27;86.87;98709.05;1644753;85;21137;-73
2022/04/10 05:57:03;;;;;;;12.45;6.05;;;;;;;6.32;86.41;98711.66;1683780;84;21068;-71
2022/04/10 05:59:41;;;;;;;13.48;6.33;;;;;;;6.35;86.23;98707.48;1725484;82;20978;-71
2022/04/10 06:02:13;;;;;;;15.88;7.03;;;;;;;6.37;85.97;98715.38;1736969;82;20993;-72
2022/04/10 06:04:42;;;;;;;17.45;7.53;;;;;;;6.36;85.62;98709.11;1732385;82;20989;-73
2022/04/10 06:07:15;;;;;;;13.05;5.45;;;;;;;6.38;85.68;98719.16;1688230;82;20988;-71
2022/04/10 06:09:46;;;;;;;11.38;5.67;;;;;;;6.44;85.68;98712.47;1661382;83;21509;-72
2022/04/10 06:12:15;;;;;;;13.90;5.12;;;;;;;6.50;84.87;98710.39;1681021;84;21806;-72
2022/04/10 06:14:47;;;;;;;9.38;5.28;;;;;;;6.51;84.63;98714.77;1657370;84;21249;-73
2022/04/10 06:17:14;;;;;;;8.88;4.40;;;;;;;6.56;84.62;98720.11;1644627;85;21016;-71
2022/04/10 06:19:49;;;;;;;9.48;5.53;;;;;;;6.64;84.82;98716.34;1637720;85;21028;-72
2022/04/10 06:22:42;;;;;;;11.10;6.00;;;;;;;6.75;84.04;98716.90;1671721;84;21024;-71
2022/04/10 06:25:11;;;;;;;13.58;6.35;;;;;;;6.78;83.16;98721.74;1660066;84;21490;-72
2022/04/10 06:27:39;;;;;;;14.20;5.30;;;;;;;6.76;83.21;98721.24;1683418;84;21071;-72
2022/04/10 06:30:06;;;;;;;11.78;6.05;;;;;;;6.79;83.16;98726.91;1730152;82;21553;-74
2022/04/10 06:32:36;;;;;;;13.15;5.65;;;;;;;6.75;81.33;98725.93;1679354;84;21062;-73
2022/04/10 06:35:08;;;;;;;11.83;6.15;;;;;;;6.68;81.45;98721.45;1688926;83;21041;-72
2022/04/10 06:37:38;;;;;;;12.07;6.17;;;;;;;6.71;81.81;98729.03;1650998;85;21055;-71
2022/04/10 06:40:10;;;;;;;15.00;6.33;;;;;;;6.76;80.57;98723.98;1656659;84;20982;-70
2022/04/10 06:46:31;;;;;;;15.40;6.62;;;;;;;6.82;80.53;98735.06;1586085;87;21024;-73
2022/04/10 06:49:14;;;;;;;9.43;5.75;;;;;;;6.90;80.00;98737.59;1543251;90;21239;-73
2022/04/10 06:51:43;;;;;;;12.78;6.08;;;;;;;6.95;79.66;98745.67;1568370;87;21175;-72
2022/04/10 06:54:12;;;;;;;13.05;6.42;;;;;;;6.99;79.06;98747.22;1618689;85;21117;-73
2022/04/10 06:56:44;;;;;;;10.05;5.25;;;;;;;7.02;79.51;98746.59;1677763;85;20942;-72
2022/04/10 06:59:17;;;;;;;8.88;4.45;;;;;;;7.14;79.86;98753.67;1662861;84;21009;-71
2022/04/10 07:01:45;;;;;;;9.75;4.78;;;;;;;7.24;78.84;98759.42;1728655;82;21005;-71
2022/04/10 07:04:34;;;;;;;7.05;3.98;;;;;;;7.28;78.76;98759.60;1726489;82;21112;-71
2022/04/10 07:07:22;;;;;;;9.45;4.33;;;;;;;7.37;78.65;98767.28;1736128;82;21411;-69
2022/04/10 07:09:50;;;;;;;6.22;3.83;;;;;;;7.49;78.32;98773.53;1718820;82;21024;-74
2022/04/10 07:12:16;;;;;;;10.45;3.58;;;;;;;7.60;78.21;98773.23;1716303;82;20954;-73
2022/04/10 07:14:46;;;;;;;6.50;3.98;;;;;;;7.66;77.77;98782.92;1664516;84;20997;-73
2022/04/10 07:17:17;;;;;;;6.30;4.03;;;;;;;7.62;76.77;98776.48;1678519;84;21067;-72
2022/04/10 07:19:47;;;;;;;5.25;3.90;;;;;;;7.60;77.26;98785.58;1709595;82;21001;-73
2022/04/10 07:25:11;;;;;;;6.47;4.08;;;;;;;7.76;77.52;98792.23;1722006;82;21069;-73
2022/04/10 07:27:44;;;;;;;6.62;4.72;;;;;;;7.86;76.89;98800.74;1696885;84;21071;-72
2022/04/10 07:33:08;;;;;;;7.17;4.53;;;;;;;7.87;76.66;98804.27;1700845;83;21238;-73
2022/04/10 07:36:20;;;;;;;6.95;4.45;;;;;;;7.81;75.77;98801.45;1702291;82;21101;-71
2022/04/10 07:39:08;;;;;;;6.75;5.03;;;;;;;7.78;76.48;98802.33;1676433;84;20989;-72
2022/04/10 07:44:27;;;;;;;7.87;4.92;;;;;;;7.93;76.16;98808.50;1702627;82;21045;-73
2022/04/10 07:49:43;;;;;;;7.00;4.53;;;;;;;7.98;76.39;98805.61;1673840;84;21294;-74
2022/04/10 07:52:28;;;;;;;11.08;3.67;;;;;;;8.17;76.63;98811.37;1671772;83;20870;-72
2022/04/10 07:55:40;;;;;;;7.20;4.12;;;;;;;8.31;75.05;98805.70;1624123;88;20988;-75
2022/04/10 07:58:25;;;;;;;6.78;4.15;;;;;;;8.27;73.91;98809.66;1647819;87;21218;-73
2022/04/10 08:01:11;;;;;;;5.67;3.92;;;;;;;8.15;72.76;98818.52;1652849;86;20961;-72
2022/04/10 08:03:43;;;;;;;5.22;3.83;;;;;;;8.08;73.61;98821.51;1656202;86;21520;-75
2022/04/10 08:06:42;;;;;;;8.13;3.50;;;;;;;8.09;72.67;98825.86;1651448;86;20973;-74
2022/04/10 08:12:10;;;;;;;4.92;3.98;;;;;;;7.93;72.41;98817.28;1656395;86;20983;-74
2022/04/10 08:15:16;;;;;;;4.78;3.95;;;;;;;7.91;71.76;98817.05;1623872;87;20957;-72
2022/04/10 08:18:00;;;;;;;6.22;3.47;;;;;;;7.89;72.23;98822.59;1620591;88;20953;-71
2022/04/10 08:20:30;;;;;;;4.75;3.45;;;;;;;7.92;71.79;98830.19;1606991;88;21508;-75
2022/04/10 08:22:59;;;;;;;5.60;3.98;;;;;;;7.80;70.98;98825.31;1623125;87;21473;-74
2022/04/10 08:25:31;;;;;;;7.05;4.25;;;;;;;7.74;71.06;98830.16;1625601;88;21228;-72
2022/04/10 08:28:42;;;;;;;6.58;3.52;;;;;;;7.75;71.30;98835.87;1618635;87;20885;-73
2022/04/10 08:31:26;;;;;;;5.97;3.47;;;;;;;7.74;71.26;98826.59;1641263;86;21457;-72
2022/04/10 08:34:19;;;;;;;5.67;3.00;;;;;;;7.75;70.24;98827.64;1646148;87;20975;-73
2022/04/10 08:37:07;;;;;;;6.05;3.45;;;;;;;7.67;69.39;98820.20;1474201;96;21010;-74
2022/04/10 08:40:05;;;;;;;4.17;2.98;;;;;;;7.73;70.59;98826.36;1564177;91;20932;-72
2022/04/10 08:42:36;;;;;;;4.70;3.00;;;;;;;7.87;70.10;98828.41;1694206;82;20921;-72
2022/04/10 08:45:08;;;;;;;4.53;2.85;;;;;;;7.92;69.08;98827.44;1731504;82;20962;-73
2022/04/10 08:47:44;;;;;;;4.60;3.03;;;;;;;7.97;68.60;98823.18;1729979;82;20910;-73
2022/04/10 08:52:00;;;;;;;9.60;3.30;;;;;;;8.19;68.23;98824.77;1854161;77;22146;-71
2022/04/10 08:54:29;;;;;;;5.42;3.35;;;;;;;8.18;68.66;98828.06;1821871;78;21438;-72
2022/04/10 09:00:35;;;;;;;9.15;4.35;;;;;;;8.28;68.01;98835.17;1821699;78;20955;-72
2022/04/10 09:03:47;;;;;;;10.23;5.22;;;;;;;8.40;68.22;98827.67;1821794;78;20892;-71
2022/04/10 09:06:18;;;;;;;10.90;5.45;;;;;;;8.40;67.39;98833.98;1821443;78;20908;-73
2022/04/10 09:09:23;;;;;;;6.85;4.53;;;;;;;8.33;67.22;98836.95;1815258;78;20849;-73
2022/04/10 09:12:18;;;;;;;6.17;3.92;;;;;;;8.39;67.79;98837.05;1725299;83;20967;-73
2022/04/10 09:14:45;;;;;;;12.18;5.22;;;;;;;8.53;68.24;98844.55;1723919;82;21055;-74
2022/04/10 09:17:29;;;;;;;5.60;3.47;;;;;;;8.71;68.44;98838.28;1750836;82;20964;-73
2022/04/10 09:20:00;;;;;;;4.70;3.75;;;;;;;8.89;68.42;98840.44;1750183;82;20970;-72
2022/04/10 09:22:37;;;;;;;7.42;3.92;;;;;;;9.07;67.61;98830.80;1750647;82;21051;-72
2022/04/10 09:25:18;;;;;;;6.80;3.80;;;;;;;9.14;67.45;98836.61;1750969;82;21843;-73
2022/04/10 09:27:56;;;;;;;7.62;4.10;;;;;;;9.31;67.62;98833.01;1690635;84;21031;-72
2022/04/10 09:30:29;;;;;;;10.40;4.17;;;;;;;9.53;67.70;98826.20;1747091;82;21055;-72
2022/04/10 09:32:56;;;;;;;11.53;4.28;;;;;;;9.69;67.25;98832.76;1702867;82;21008;-72
2022/04/10 09:35:31;;;;;;;13.05;4.55;;;;;;;9.81;66.85;98836.18;1750522;78;20964;-72
2022/04/10 09:38:10;;;;;;;12.65;5.25;;;;;;;9.91;66.17;98834.98;1816641;78;20991;-72
2022/04/10 09:40:38;;;;;;;9.98;4.70;;;;;;;9.98;66.15;98831.16;1791739;78;20912;-73
2022/04/10 09:43:10;;;;;;;11.48;4.45;;;;;;;10.05;65.48;98832.00;1821826;78;20885;-74
2022/04/10 09:45:42;;;;;;;9.60;4.92;;;;;;;10.06;64.57;98832.81;1822145;78;21626;-74
2022/04/10 09:48:28;;;;;;;8.78;4.50;;;;;;;10.03;64.00;98832.90;1814499;78;20876;-74
2022/04/10 09:51:05;;;;;;;7.25;4.53;;;;;;;9.98;64.22;98833.91;1778383;80;20928;-72
2022/04/10 09:53:35;;;;;;;6.10;4.12;;;;;;;10.02;64.02;98831.86;1789739;80;21006;-72
2022/04/10 09:56:06;;;;;;;10.10;4.50;;;;;;;10.00;63.10;98825.91;1789841;80;20893;-72
2022/04/10 09:58:38;;;;;;;14.68;5.70;;;;;;;9.82;62.70;98825.43;1789317;80;21042;-73
2022/04/10 10:01:10;;;;;;;11.33;6.00;;;;;;;9.71;62.69;98824.17;1789576;80;21567;-72
2022/04/10 10:03:43;;;;;;;15.00;6.53;;;;;;;9.64;61.70;98829.41;1788849;80;20964;-70
2022/04/10 10:06:36;;;;;;;11.73;6.40;;;;;;;9.46;61.96;98830.84;1783850;80;20896;-72
2022/04/10 10:09:48;;;;;;;14.85;5.65;;;;;;;9.31;62.21;98840.44;1760574;80;20884;-74
2022/04/10 10:12:19;;;;;;;10.80;5.00;;;;;;;9.29;62.86;98831.70;1788788;80;20889;-73
2022/04/10 10:14:53;;;;;;;8.85;3.87;;;;;;;9.42;63.30;98837.56;1789196;80;20927;-73
2022/04/10 10:17:44;;;;;;;6.25;3.60;;;;;;;9.56;63.16;98844.23;1773274;80;20940;-73
2022/04/10 10:20:29;;;;;;;5.78;3.42;;;;;;;9.64;60.86;98844.53;1786619;80;20900;-72
2022/04/10 10:23:02;;;;;;;6.05;3.42;;;;;;;9.65;60.56;98845.58;1788313;80;21500;-73
2022/04/10 10:25:49;;;;;;;6.03;3.50;;;;;;;9.71;61.02;98848.38;1789155;80;20957;-76
2022/04/10 10:28:55;;;;;;;6.28;3.17;;;;;;;9.77;58.17;98853.69;1757791;80;20865;-72
2022/04/10 10:31:53;;;;;;;4.97;3.40;;;;;;;9.65;57.69;98845.58;1789289;80;21105;-72
2022/04/10 10:34:26;;;;;;;7.03;3.30;;;;;;;9.62;58.44;98852.53;1788695;80;20900;-73
2022/04/10 10:36:57;;;;;;;7.70;3.08;;;;;;;9.72;58.81;98850.56;1789278;80;20999;-72
2022/04/10 10:39:25;;;;;;;4.92;2.70;;;;;;;9.80;58.67;98847.52;1789019;80;20963;-73
2022/04/10 10:42:17;;;;;;;5.65;3.15;;;;;;;9.84;59.11;98847.11;1755306;80;20900;-71
2022/04/10 10:44:50;;;;;;;5.80;3.60;;;;;;;9.74;58.09;98854.58;1788835;80;21051;-72
2022/04/10 10:47:26;;;;;;;8.30;3.17;;;;;;;9.61;57.35;98859.73;1788702;80;20873;-71
2022/04/10 10:49:54;;;;;;;6.83;3.20;;;;;;;9.45;57.66;98867.15;1788996;78;20999;-72
2022/04/10 10:52:25;;;;;;;7.12;3.65;;;;;;;9.33;57.86;98870.58;1782390;80;21006;-72
2022/04/10 10:54:58;;;;;;;6.53;3.60;;;;;;;9.32;58.19;98871.72;1789029;80;20896;-71
2022/04/10 10:57:40;;;;;;;6.03;3.72;;;;;;;9.24;57.11;98874.75;1789201;80;21173;-73
2022/04/10 11:00:26;;;;;;;7.78;2.70;;;;;;;9.03;57.52;98865.55;1786830;80;20908;-74
2022/04/10 11:02:53;;;;;;;;;;;;;;;8.91;57.22;98860.16;1785328;80;21421;-73
2022/04/10 11:05:35;;;;;;;3.40;2.92;;;;;;;8.88;58.37;98856.69;1758525;80;20108;-71
2022/04/10 11:08:10;;;;;;;8.85;3.52;;;;;;;8.91;58.77;98861.53;1789461;80;20979;-71
2022/04/10 11:10:52;;;;;;;4.67;2.95;;;;;;;8.92;58.76;98864.53;1759305;80;20877;-71
2022/04/10 11:13:21;;;;;;;9.33;3.17;;;;;;;8.96;58.43;98864.11;1788832;80;20876;-71
2022/04/10 11:15:55;;;;;;;4.80;2.62;;;;;;;9.07;58.24;98865.16;1788936;80;20888;-72
2022/04/10 11:18:35;;;;;;;6.08;3.33;;;;;;;9.03;57.22;98858.13;1788969;80;21008;-73
2022/04/10 11:21:15;;;;;;;3.92;2.60;;;;;;;8.91;56.70;98854.66;1789078;80;21070;-74
2022/04/10 11:23:48;;;;;;;4.33;2.83;;;;;;;8.85;56.46;98854.01;1789131;80;21189;-72
2022/04/10 11:26:20;;;;;;;6.10;3.05;;;;;;;8.92;55.92;98855.48;1788964;80;20931;-73
2022/04/10 11:29:07;;;;;;;9.90;3.22;;;;;;;8.98;56.19;98858.28;1789146;80;20916;-73
2022/04/10 11:32:20;;;;;;;9.40;3.25;;;;;;;9.07;56.25;98850.85;1755941;80;20944;-72
2022/04/10 11:35:00;;;;;;;5.62;2.40;;;;;;;9.19;55.13;98850.18;1788664;80;21406;-72
2022/04/10 11:37:38;;;;;;;4.30;2.37;;;;;;;9.22;54.99;98850.08;1788926;80;20962;-73
2022/04/10 11:40:07;;;;;;;4.83;2.35;;;;;;;9.25;53.65;98854.91;1758672;80;20912;-72
2022/04/10 11:42:33;;;;;;;9.43;2.77;;;;;;;9.17;53.62;98853.81;1758080;80;21003;-69
2022/04/10 11:45:00;;;;;;;4.58;2.60;;;;;;;9.11;54.29;98850.42;1782308;80;20928;-72
2022/04/10 11:47:26;;;;;;;5.03;2.37;;;;;;;9.05;54.30;98853.11;1758196;80;21035;-71
2022/04/10 11:49:59;;;;;;;6.25;3.37;;;;;;;8.98;54.39;98852.80;1770605;80;21578;-74
2022/04/10 11:52:26;;;;;;;5.10;2.77;;;;;;;8.84;55.18;98847.47;1782429;80;20988;-70
2022/04/10 11:54:53;;;;;;;6.03;2.83;;;;;;;8.74;56.20;98860.42;1778042;80;20944;-72
2022/04/10 11:57:20;;;;;;;4.10;2.52;;;;;;;8.67;55.75;98858.72;1778483;80;20913;-71
2022/04/10 11:59:53;;;;;;;5.33;2.83;;;;;;;8.60;56.34;98863.88;1778218;80;21406;-72
2022/04/10 12:02:20;;;;;;;3.62;2.72;;;;;;;8.60;56.63;98863.88;1750868;80;21124;-71
2022/04/10 12:04:50;;;;;;;3.37;2.37;;;;;;;8.63;57.72;98868.75;1778032;80;20924;-72
2022/04/10 12:07:19;;;;;;;4.75;3.05;;;;;;;8.73;57.53;98865.68;1778317;79;20917;-72
2022/04/10 12:09:49;;;;;;;7.60;3.08;;;;;;;8.72;57.86;98862.67;1777927;80;20972;-71
2022/04/10 12:12:37;;;;;;;3.45;2.45;;;;;;;8.72;58.23;98870.09;1778102;80;21485;-72
2022/04/10 12:15:17;;;;;;;6.35;3.15;;;;;;;8.62;59.11;98869.86;1777847;80;21359;-71
2022/04/10 12:17:46;;;;;;;4.75;3.35;;;;;;;8.51;60.01;98869.36;1778017;80;20980;-75
2022/04/10 12:20:15;;;;;;;5.22;3.65;;;;;;;8.52;60.63;98866.84;1777883;80;20967;-71
2022/04/10 12:22:44;;;;;;;6.50;2.70;;;;;;;8.55;61.34;98868.97;1777533;80;20984;-71
2022/04/10 12:25:11;;;;;;;4.30;2.60;;;;;;;8.62;61.43;98859.70;1778124;80;20873;-71
2022/04/10 12:27:38;;;;;;;4.15;2.45;;;;;;;8.71;60.76;98861.62;1778037;80;21816;-71
2022/04/10 12:30:18;;;;;;;5.95;2.62;;;;;;;8.74;60.60;98861.79;1777058;80;20924;-73
2022/04/10 12:32:46;;;;;;;5.67;2.52;;;;;;;8.81;60.18;98863.23;1777858;80;21529;-73
2022/04/10 12:35:15;;;;;;;7.37;3.67;;;;;;;8.90;60.03;98857.17;1776477;80;20969;-70
2022/04/10 12:37:46;;;;;;;7.87;4.08;;;;;;;8.95;60.23;98865.81;1777588;80;21465;-71
2022/04/10 12:40:13;;;;;;;7.30;3.92;;;;;;;8.86;60.08;98863.06;1776734;80;21606;-71
2022/04/10 12:42:44;;;;;;;5.12;3.72;;;;;;;8.74;60.84;98861.79;1776955;80;20913;-72
2022/04/10 12:45:12;;;;;;;4.47;3.10;;;;;;;8.74;60.93;98858.23;1775502;79;21000;-70
2022/04/10 12:47:47;;;;;;;7.97;4.37;;;;;;;8.69;59.37;98847.41;1777624;79;21036;-72
2022/04/10 12:50:21;;;;;;;7.28;5.22;;;;;;;8.68;59.96;98848.55;1773602;79;20993;-72
2022/04/10 12:52:49;;;;;;;5.15;3.55;;;;;;;8.72;60.69;98847.56;1731625;81;21159;-72
2022/04/10 12:55:20;;;;;;;6.20;3.25;;;;;;;8.71;61.38;98836.35;1733893;81;20996;-69